sensor_id;sensor_type;location;lat;lon;timestamp;P1;durP1;ratioP1;P2;durP2;ratioP2
76818;SDS011;65772;51.096;17.006;2023-05-29T00:00:47;6.90;;;2.90;;
76818;SDS011;65772;51.096;17.006;2023-05-29T00:03:19;7.30;;;2.70;;
76818;SDS011;65772;51.096;17.006;2023-05-29T00:05:50;6.90;;;2.70;;
76818;SDS011;65772;51.096;17.006;2023-05-29T00:08:21;7.90;;;3.30;;
76818;SDS011;65772;51.096;17.006;2023-05-29T00:10:51;9.10;;;3.10;;
76818;SDS011;65772;51.096;17.006;2023-05-29T00:13:23;8.20;;;3.00;;
76818;SDS011;65772;51.096;17.006;2023-05-29T00:15:53;8.40;;;3.50;;
76818;SDS011;65772;51.096;17.006;2023-05-29T00:18:24;7.80;;;3.00;;
76818;SDS011;65772;51.096;17.006;2023-05-29T00:20:55;6.60;;;2.90;;
76818;SDS011;65772;51.096;17.006;2023-05-29T00:23:26;7.10;;;2.60;;
76818;SDS011;65772;51.096;17.006;2023-05-29T00:25:56;6.60;;;2.70;;
76818;SDS011;65772;51.096;17.006;2023-05-29T00:28:27;9.00;;;3.10;;
76818;SDS011;65772;51.096;17.006;2023-05-29T00:30:57;8.20;;;2.90;;
76818;SDS011;65772;51.096;17.006;2023-05-29T00:33:29;7.30;;;3.00;;
76818;SDS011;65772;51.096;17.006;2023-05-29T00:35:59;8.60;;;3.20;;
76818;SDS011;65772;51.096;17.006;2023-05-29T00:38:30;6.10;;;3.10;;
76818;SDS011;65772;51.096;17.006;2023-05-29T00:41:00;9.10;;;3.20;;
76818;SDS011;65772;51.096;17.006;2023-05-29T00:43:31;6.50;;;3.00;;
76818;SDS011;65772;51.096;17.006;2023-05-29T00:46:01;9.60;;;3.30;;
76818;SDS011;65772;51.096;17.006;2023-05-29T00:48:33;6.40;;;3.00;;
76818;SDS011;65772;51.096;17.006;2023-05-29T00:51:04;8.00;;;3.00;;
76818;SDS011;65772;51.096;17.006;2023-05-29T00:53:34;8.70;;;3.30;;
76818;SDS011;65772;51.096;17.006;2023-05-29T00:56:05;10.50;;;3.10;;
76818;SDS011;65772;51.096;17.006;2023-05-29T00:58:36;9.60;;;3.00;;
76818;SDS011;65772;51.096;17.006;2023-05-29T01:01:08;6.70;;;3.60;;
76818;SDS011;65772;51.096;17.006;2023-05-29T01:03:39;7.40;;;3.00;;
76818;SDS011;65772;51.096;17.006;2023-05-29T01:06:11;8.80;;;3.10;;
76818;SDS011;65772;51.096;17.006;2023-05-29T01:08:44;9.40;;;3.20;;
76818;SDS011;65772;51.096;17.006;2023-05-29T01:11:18;8.10;;;3.00;;
76818;SDS011;65772;51.096;17.006;2023-05-29T01:13:56;9.10;;;3.30;;
76818;SDS011;65772;51.096;17.006;2023-05-29T01:16:33;8.20;;;3.50;;
76818;SDS011;65772;51.096;17.006;2023-05-29T01:19:16;8.20;;;3.40;;
76818;SDS011;65772;51.096;17.006;2023-05-29T01:22:08;6.80;;;3.10;;
76818;SDS011;65772;51.096;17.006;2023-05-29T01:24:54;9.90;;;3.20;;
76818;SDS011;65772;51.096;17.006;2023-05-29T01:27:31;7.20;;;2.90;;
76818;SDS011;65772;51.096;17.006;2023-05-29T01:30:02;9.10;;;4.00;;
76818;SDS011;65772;51.096;17.006;2023-05-29T01:32:34;8.70;;;3.40;;
76818;SDS011;65772;51.096;17.006;2023-05-29T01:35:08;7.70;;;3.40;;
76818;SDS011;65772;51.096;17.006;2023-05-29T01:37:38;7.20;;;3.70;;
76818;SDS011;65772;51.096;17.006;2023-05-29T01:40:10;6.40;;;3.50;;
76818;SDS011;65772;51.096;17.006;2023-05-29T01:42:41;11.10;;;3.70;;
76818;SDS011;65772;51.096;17.006;2023-05-29T01:45:14;7.30;;;3.50;;
76818;SDS011;65772;51.096;17.006;2023-05-29T01:47:47;7.60;;;3.80;;
76818;SDS011;65772;51.096;17.006;2023-05-29T01:50:18;8.70;;;4.10;;
76818;SDS011;65772;51.096;17.006;2023-05-29T01:52:52;7.40;;;3.70;;
76818;SDS011;65772;51.096;17.006;2023-05-29T01:55:23;8.20;;;4.20;;
76818;SDS011;65772;51.096;17.006;2023-05-29T01:57:53;9.50;;;3.80;;
76818;SDS011;65772;51.096;17.006;2023-05-29T02:00:25;8.50;;;3.40;;
76818;SDS011;65772;51.096;17.006;2023-05-29T02:02:57;8.30;;;4.00;;
76818;SDS011;65772;51.096;17.006;2023-05-29T02:05:28;9.40;;;4.10;;
76818;SDS011;65772;51.096;17.006;2023-05-29T02:07:59;10.60;;;3.80;;
76818;SDS011;65772;51.096;17.006;2023-05-29T02:10:29;10.00;;;3.70;;
76818;SDS011;65772;51.096;17.006;2023-05-29T02:13:00;8.00;;;4.00;;
76818;SDS011;65772;51.096;17.006;2023-05-29T02:15:31;10.40;;;3.70;;
76818;SDS011;65772;51.096;17.006;2023-05-29T02:18:02;6.90;;;3.50;;
76818;SDS011;65772;51.096;17.006;2023-05-29T02:20:33;8.90;;;3.70;;
76818;SDS011;65772;51.096;17.006;2023-05-29T02:23:04;7.70;;;3.80;;
76818;SDS011;65772;51.096;17.006;2023-05-29T02:25:37;7.80;;;3.90;;
76818;SDS011;65772;51.096;17.006;2023-05-29T02:28:08;9.00;;;3.80;;
76818;SDS011;65772;51.096;17.006;2023-05-29T02:33:09;8.20;;;3.30;;
76818;SDS011;65772;51.096;17.006;2023-05-29T02:35:40;9.50;;;3.80;;
76818;SDS011;65772;51.096;17.006;2023-05-29T02:38:10;7.80;;;4.00;;
76818;SDS011;65772;51.096;17.006;2023-05-29T02:40:41;9.10;;;3.90;;
76818;SDS011;65772;51.096;17.006;2023-05-29T02:43:12;8.40;;;3.70;;
76818;SDS011;65772;51.096;17.006;2023-05-29T02:45:43;9.20;;;3.90;;
76818;SDS011;65772;51.096;17.006;2023-05-29T02:48:16;9.10;;;3.80;;
76818;SDS011;65772;51.096;17.006;2023-05-29T02:50:46;9.70;;;4.10;;
76818;SDS011;65772;51.096;17.006;2023-05-29T02:53:17;7.50;;;3.90;;
76818;SDS011;65772;51.096;17.006;2023-05-29T02:55:48;10.20;;;3.80;;
76818;SDS011;65772;51.096;17.006;2023-05-29T02:58:22;7.80;;;3.70;;
76818;SDS011;65772;51.096;17.006;2023-05-29T03:00:52;10.50;;;4.40;;
76818;SDS011;65772;51.096;17.006;2023-05-29T03:03:23;7.90;;;3.40;;
76818;SDS011;65772;51.096;17.006;2023-05-29T03:05:54;7.40;;;3.50;;
76818;SDS011;65772;51.096;17.006;2023-05-29T03:08:25;10.20;;;4.10;;
76818;SDS011;65772;51.096;17.006;2023-05-29T03:10:56;9.50;;;4.10;;
76818;SDS011;65772;51.096;17.006;2023-05-29T03:13:27;8.90;;;3.80;;
76818;SDS011;65772;51.096;17.006;2023-05-29T03:16:03;10.90;;;3.70;;
76818;SDS011;65772;51.096;17.006;2023-05-29T03:18:37;11.10;;;4.20;;
76818;SDS011;65772;51.096;17.006;2023-05-29T03:21:08;11.00;;;4.50;;
76818;SDS011;65772;51.096;17.006;2023-05-29T03:23:39;13.00;;;4.20;;
76818;SDS011;65772;51.096;17.006;2023-05-29T03:26:10;8.90;;;3.90;;
76818;SDS011;65772;51.096;17.006;2023-05-29T03:28:41;10.00;;;3.70;;
76818;SDS011;65772;51.096;17.006;2023-05-29T03:31:12;8.40;;;3.90;;
76818;SDS011;65772;51.096;17.006;2023-05-29T03:33:43;8.60;;;4.00;;
76818;SDS011;65772;51.096;17.006;2023-05-29T03:36:22;11.80;;;3.90;;
76818;SDS011;65772;51.096;17.006;2023-05-29T03:38:52;12.90;;;3.60;;
76818;SDS011;65772;51.096;17.006;2023-05-29T03:41:24;10.30;;;4.10;;
76818;SDS011;65772;51.096;17.006;2023-05-29T03:43:55;10.50;;;3.90;;
76818;SDS011;65772;51.096;17.006;2023-05-29T03:46:27;11.10;;;4.20;;
76818;SDS011;65772;51.096;17.006;2023-05-29T03:53:11;15.70;;;4.20;;
76818;SDS011;65772;51.096;17.006;2023-05-29T03:55:43;11.50;;;4.40;;
76818;SDS011;65772;51.096;17.006;2023-05-29T03:58:14;9.30;;;4.10;;
76818;SDS011;65772;51.096;17.006;2023-05-29T04:00:45;9.60;;;4.10;;
76818;SDS011;65772;51.096;17.006;2023-05-29T04:03:17;9.60;;;4.00;;
76818;SDS011;65772;51.096;17.006;2023-05-29T04:05:48;9.60;;;4.20;;
76818;SDS011;65772;51.096;17.006;2023-05-29T04:08:19;11.40;;;4.60;;
76818;SDS011;65772;51.096;17.006;2023-05-29T04:10:50;15.70;;;4.20;;
76818;SDS011;65772;51.096;17.006;2023-05-29T04:13:22;13.00;;;4.10;;
76818;SDS011;65772;51.096;17.006;2023-05-29T04:15:53;37.60;;;20.50;;
76818;SDS011;65772;51.096;17.006;2023-05-29T04:18:23;20.80;;;10.80;;
76818;SDS011;65772;51.096;17.006;2023-05-29T04:20:54;12.60;;;5.20;;
76818;SDS011;65772;51.096;17.006;2023-05-29T04:23:25;8.30;;;4.10;;
76818;SDS011;65772;51.096;17.006;2023-05-29T04:25:55;10.40;;;4.70;;
76818;SDS011;65772;51.096;17.006;2023-05-29T04:28:28;14.20;;;5.40;;
76818;SDS011;65772;51.096;17.006;2023-05-29T04:31:00;15.90;;;5.00;;
76818;SDS011;65772;51.096;17.006;2023-05-29T04:33:31;10.00;;;4.10;;
76818;SDS011;65772;51.096;17.006;2023-05-29T04:36:05;10.30;;;4.60;;
76818;SDS011;65772;51.096;17.006;2023-05-29T04:38:39;13.10;;;4.60;;
76818;SDS011;65772;51.096;17.006;2023-05-29T04:41:10;11.80;;;4.90;;
76818;SDS011;65772;51.096;17.006;2023-05-29T04:43:40;27.70;;;15.30;;
76818;SDS011;65772;51.096;17.006;2023-05-29T04:46:11;18.40;;;7.80;;
76818;SDS011;65772;51.096;17.006;2023-05-29T04:48:43;13.50;;;4.70;;
76818;SDS011;65772;51.096;17.006;2023-05-29T04:51:15;11.40;;;5.10;;
76818;SDS011;65772;51.096;17.006;2023-05-29T04:53:50;12.40;;;5.00;;
76818;SDS011;65772;51.096;17.006;2023-05-29T04:56:20;11.80;;;4.70;;
76818;SDS011;65772;51.096;17.006;2023-05-29T04:58:51;11.90;;;5.20;;
76818;SDS011;65772;51.096;17.006;2023-05-29T05:01:22;9.20;;;5.00;;
76818;SDS011;65772;51.096;17.006;2023-05-29T05:03:53;12.50;;;4.50;;
76818;SDS011;65772;51.096;17.006;2023-05-29T05:06:24;10.20;;;3.90;;
76818;SDS011;65772;51.096;17.006;2023-05-29T05:11:25;11.20;;;4.40;;
76818;SDS011;65772;51.096;17.006;2023-05-29T05:13:56;12.00;;;4.40;;
76818;SDS011;65772;51.096;17.006;2023-05-29T05:16:27;13.10;;;4.30;;
76818;SDS011;65772;51.096;17.006;2023-05-29T05:18:58;8.90;;;3.90;;
76818;SDS011;65772;51.096;17.006;2023-05-29T05:21:30;12.90;;;4.30;;
76818;SDS011;65772;51.096;17.006;2023-05-29T05:24:02;13.80;;;5.30;;
76818;SDS011;65772;51.096;17.006;2023-05-29T05:26:33;12.70;;;4.50;;
76818;SDS011;65772;51.096;17.006;2023-05-29T05:29:04;10.80;;;5.20;;
76818;SDS011;65772;51.096;17.006;2023-05-29T05:31:35;12.80;;;4.70;;
76818;SDS011;65772;51.096;17.006;2023-05-29T05:34:05;13.80;;;4.80;;
76818;SDS011;65772;51.096;17.006;2023-05-29T05:36:36;11.80;;;5.10;;
76818;SDS011;65772;51.096;17.006;2023-05-29T05:39:10;12.40;;;4.70;;
76818;SDS011;65772;51.096;17.006;2023-05-29T05:41:43;11.10;;;4.60;;
76818;SDS011;65772;51.096;17.006;2023-05-29T05:44:17;10.00;;;4.50;;
76818;SDS011;65772;51.096;17.006;2023-05-29T05:46:57;10.40;;;4.10;;
76818;SDS011;65772;51.096;17.006;2023-05-29T05:49:27;10.10;;;4.00;;
76818;SDS011;65772;51.096;17.006;2023-05-29T05:51:58;13.80;;;3.90;;
76818;SDS011;65772;51.096;17.006;2023-05-29T05:54:29;13.00;;;4.10;;
76818;SDS011;65772;51.096;17.006;2023-05-29T05:57:00;14.20;;;3.80;;
76818;SDS011;65772;51.096;17.006;2023-05-29T05:59:31;14.10;;;3.80;;
76818;SDS011;65772;51.096;17.006;2023-05-29T06:02:03;9.80;;;3.40;;
76818;SDS011;65772;51.096;17.006;2023-05-29T06:04:36;6.20;;;3.60;;
76818;SDS011;65772;51.096;17.006;2023-05-29T06:07:08;11.20;;;3.60;;
76818;SDS011;65772;51.096;17.006;2023-05-29T06:09:38;12.30;;;3.20;;
76818;SDS011;65772;51.096;17.006;2023-05-29T06:12:09;10.00;;;3.70;;
76818;SDS011;65772;51.096;17.006;2023-05-29T06:14:45;7.30;;;3.30;;
76818;SDS011;65772;51.096;17.006;2023-05-29T06:17:16;7.90;;;3.10;;
76818;SDS011;65772;51.096;17.006;2023-05-29T06:19:50;9.50;;;3.10;;
76818;SDS011;65772;51.096;17.006;2023-05-29T06:22:20;5.90;;;2.80;;
76818;SDS011;65772;51.096;17.006;2023-05-29T06:24:51;7.00;;;3.00;;
76818;SDS011;65772;51.096;17.006;2023-05-29T06:27:21;8.90;;;3.40;;
76818;SDS011;65772;51.096;17.006;2023-05-29T06:32:22;5.80;;;2.80;;
76818;SDS011;65772;51.096;17.006;2023-05-29T06:34:56;6.60;;;2.90;;
76818;SDS011;65772;51.096;17.006;2023-05-29T06:37:26;7.50;;;3.40;;
76818;SDS011;65772;51.096;17.006;2023-05-29T06:39:57;6.40;;;2.70;;
76818;SDS011;65772;51.096;17.006;2023-05-29T06:42:27;6.30;;;2.70;;
76818;SDS011;65772;51.096;17.006;2023-05-29T06:44:59;7.10;;;2.80;;
76818;SDS011;65772;51.096;17.006;2023-05-29T06:47:29;6.60;;;2.50;;
76818;SDS011;65772;51.096;17.006;2023-05-29T06:50:01;5.80;;;2.60;;
76818;SDS011;65772;51.096;17.006;2023-05-29T06:52:32;5.50;;;2.70;;
76818;SDS011;65772;51.096;17.006;2023-05-29T06:55:31;21.30;;;11.40;;
76818;SDS011;65772;51.096;17.006;2023-05-29T06:58:02;8.40;;;4.20;;
76818;SDS011;65772;51.096;17.006;2023-05-29T07:00:32;9.30;;;3.10;;
76818;SDS011;65772;51.096;17.006;2023-05-29T07:03:20;7.60;;;2.90;;
76818;SDS011;65772;51.096;17.006;2023-05-29T07:05:50;5.40;;;2.80;;
76818;SDS011;65772;51.096;17.006;2023-05-29T07:08:21;7.60;;;3.00;;
76818;SDS011;65772;51.096;17.006;2023-05-29T07:10:52;6.70;;;2.60;;
76818;SDS011;65772;51.096;17.006;2023-05-29T07:13:24;7.40;;;3.00;;
76818;SDS011;65772;51.096;17.006;2023-05-29T07:15:55;6.60;;;2.60;;
76818;SDS011;65772;51.096;17.006;2023-05-29T07:18:34;6.50;;;2.60;;
76818;SDS011;65772;51.096;17.006;2023-05-29T07:21:04;5.30;;;2.50;;
76818;SDS011;65772;51.096;17.006;2023-05-29T07:23:35;6.20;;;2.70;;
76818;SDS011;65772;51.096;17.006;2023-05-29T07:26:05;5.40;;;2.20;;
76818;SDS011;65772;51.096;17.006;2023-05-29T07:28:36;5.20;;;2.10;;
76818;SDS011;65772;51.096;17.006;2023-05-29T07:31:07;5.40;;;2.00;;
76818;SDS011;65772;51.096;17.006;2023-05-29T07:33:38;6.20;;;2.20;;
76818;SDS011;65772;51.096;17.006;2023-05-29T07:36:10;6.90;;;2.20;;
76818;SDS011;65772;51.096;17.006;2023-05-29T07:38:40;4.60;;;2.20;;
76818;SDS011;65772;51.096;17.006;2023-05-29T07:41:13;6.60;;;2.10;;
76818;SDS011;65772;51.096;17.006;2023-05-29T07:43:53;4.30;;;1.60;;
76818;SDS011;65772;51.096;17.006;2023-05-29T07:46:24;4.30;;;1.80;;
76818;SDS011;65772;51.096;17.006;2023-05-29T07:49:03;7.10;;;2.00;;
76818;SDS011;65772;51.096;17.006;2023-05-29T07:51:33;5.10;;;2.10;;
76818;SDS011;65772;51.096;17.006;2023-05-29T07:56:36;9.20;;;1.80;;
76818;SDS011;65772;51.096;17.006;2023-05-29T07:59:08;7.00;;;1.90;;
76818;SDS011;65772;51.096;17.006;2023-05-29T08:01:39;5.30;;;1.90;;
76818;SDS011;65772;51.096;17.006;2023-05-29T08:04:14;7.30;;;1.90;;
76818;SDS011;65772;51.096;17.006;2023-05-29T08:06:44;4.60;;;1.90;;
76818;SDS011;65772;51.096;17.006;2023-05-29T08:09:15;5.40;;;2.00;;
76818;SDS011;65772;51.096;17.006;2023-05-29T08:11:46;7.20;;;2.10;;
76818;SDS011;65772;51.096;17.006;2023-05-29T08:14:17;4.80;;;1.70;;
76818;SDS011;65772;51.096;17.006;2023-05-29T08:16:48;4.40;;;1.80;;
76818;SDS011;65772;51.096;17.006;2023-05-29T08:19:19;11.60;;;2.20;;
76818;SDS011;65772;51.096;17.006;2023-05-29T08:21:50;5.20;;;1.80;;
76818;SDS011;65772;51.096;17.006;2023-05-29T08:24:20;6.30;;;2.20;;
76818;SDS011;65772;51.096;17.006;2023-05-29T08:26:51;6.70;;;2.30;;
76818;SDS011;65772;51.096;17.006;2023-05-29T08:29:21;4.00;;;2.00;;
76818;SDS011;65772;51.096;17.006;2023-05-29T08:31:52;5.50;;;1.80;;
76818;SDS011;65772;51.096;17.006;2023-05-29T08:34:23;6.10;;;1.90;;
76818;SDS011;65772;51.096;17.006;2023-05-29T08:36:54;4.10;;;1.70;;
76818;SDS011;65772;51.096;17.006;2023-05-29T08:39:24;4.20;;;1.90;;
76818;SDS011;65772;51.096;17.006;2023-05-29T08:41:57;6.90;;;1.70;;
76818;SDS011;65772;51.096;17.006;2023-05-29T08:44:34;4.70;;;2.00;;
76818;SDS011;65772;51.096;17.006;2023-05-29T08:47:08;3.80;;;1.80;;
76818;SDS011;65772;51.096;17.006;2023-05-29T08:49:43;6.50;;;2.00;;
76818;SDS011;65772;51.096;17.006;2023-05-29T08:52:15;4.00;;;2.00;;
76818;SDS011;65772;51.096;17.006;2023-05-29T08:54:48;5.70;;;1.70;;
76818;SDS011;65772;51.096;17.006;2023-05-29T08:57:19;4.10;;;1.50;;
76818;SDS011;65772;51.096;17.006;2023-05-29T08:59:50;4.20;;;2.00;;
76818;SDS011;65772;51.096;17.006;2023-05-29T09:02:22;3.70;;;1.90;;
76818;SDS011;65772;51.096;17.006;2023-05-29T09:04:55;3.70;;;1.70;;
76818;SDS011;65772;51.096;17.006;2023-05-29T09:07:25;5.30;;;1.70;;
76818;SDS011;65772;51.096;17.006;2023-05-29T09:09:56;5.20;;;1.80;;
76818;SDS011;65772;51.096;17.006;2023-05-29T09:12:28;5.90;;;1.90;;
76818;SDS011;65772;51.096;17.006;2023-05-29T09:14:59;4.10;;;2.10;;
76818;SDS011;65772;51.096;17.006;2023-05-29T09:17:31;4.20;;;1.60;;
76818;SDS011;65772;51.096;17.006;2023-05-29T09:20:02;7.30;;;2.00;;
76818;SDS011;65772;51.096;17.006;2023-05-29T09:22:43;4.00;;;1.80;;
76818;SDS011;65772;51.096;17.006;2023-05-29T09:25:24;5.40;;;1.80;;
76818;SDS011;65772;51.096;17.006;2023-05-29T09:27:57;7.40;;;2.80;;
76818;SDS011;65772;51.096;17.006;2023-05-29T09:30:37;5.50;;;2.50;;
76818;SDS011;65772;51.096;17.006;2023-05-29T09:33:09;5.40;;;1.80;;
76818;SDS011;65772;51.096;17.006;2023-05-29T09:35:41;5.40;;;1.80;;
76818;SDS011;65772;51.096;17.006;2023-05-29T09:38:13;5.00;;;2.20;;
76818;SDS011;65772;51.096;17.006;2023-05-29T09:41:05;7.10;;;1.70;;
76818;SDS011;65772;51.096;17.006;2023-05-29T09:43:35;6.30;;;1.80;;
76818;SDS011;65772;51.096;17.006;2023-05-29T09:46:09;5.40;;;1.80;;
76818;SDS011;65772;51.096;17.006;2023-05-29T09:48:46;6.10;;;2.00;;
76818;SDS011;65772;51.096;17.006;2023-05-29T09:51:20;4.70;;;1.80;;
76818;SDS011;65772;51.096;17.006;2023-05-29T09:53:54;6.50;;;1.90;;
76818;SDS011;65772;51.096;17.006;2023-05-29T09:56:28;3.90;;;1.60;;
76818;SDS011;65772;51.096;17.006;2023-05-29T09:59:00;6.30;;;2.00;;
76818;SDS011;65772;51.096;17.006;2023-05-29T10:01:33;5.20;;;2.40;;
76818;SDS011;65772;51.096;17.006;2023-05-29T10:04:05;7.40;;;2.30;;
76818;SDS011;65772;51.096;17.006;2023-05-29T10:06:37;5.60;;;2.10;;
76818;SDS011;65772;51.096;17.006;2023-05-29T10:09:10;6.90;;;2.30;;
76818;SDS011;65772;51.096;17.006;2023-05-29T10:11:44;4.90;;;2.00;;
76818;SDS011;65772;51.096;17.006;2023-05-29T10:14:18;5.60;;;2.10;;
76818;SDS011;65772;51.096;17.006;2023-05-29T10:16:50;4.80;;;2.00;;
76818;SDS011;65772;51.096;17.006;2023-05-29T10:19:25;13.00;;;7.90;;
76818;SDS011;65772;51.096;17.006;2023-05-29T10:21:58;6.10;;;3.20;;
76818;SDS011;65772;51.096;17.006;2023-05-29T10:24:33;10.30;;;2.20;;
76818;SDS011;65772;51.096;17.006;2023-05-29T10:27:07;5.20;;;2.10;;
76818;SDS011;65772;51.096;17.006;2023-05-29T10:29:39;3.90;;;2.10;;
76818;SDS011;65772;51.096;17.006;2023-05-29T10:32:18;5.40;;;2.00;;
76818;SDS011;65772;51.096;17.006;2023-05-29T10:34:59;6.80;;;2.30;;
76818;SDS011;65772;51.096;17.006;2023-05-29T10:37:35;4.30;;;2.00;;
76818;SDS011;65772;51.096;17.006;2023-05-29T10:40:10;5.40;;;2.10;;
76818;SDS011;65772;51.096;17.006;2023-05-29T10:42:42;4.40;;;2.00;;
76818;SDS011;65772;51.096;17.006;2023-05-29T10:51:25;4.20;;;2.20;;
76818;SDS011;65772;51.096;17.006;2023-05-29T10:53:56;4.40;;;2.30;;
76818;SDS011;65772;51.096;17.006;2023-05-29T10:56:29;3.60;;;1.80;;
76818;SDS011;65772;51.096;17.006;2023-05-29T10:58:59;6.20;;;1.80;;
76818;SDS011;65772;51.096;17.006;2023-05-29T11:01:30;4.00;;;2.00;;
76818;SDS011;65772;51.096;17.006;2023-05-29T11:07:00;5.50;;;1.80;;
76818;SDS011;65772;51.096;17.006;2023-05-29T11:09:34;7.10;;;2.10;;
76818;SDS011;65772;51.096;17.006;2023-05-29T11:12:12;4.90;;;2.20;;
76818;SDS011;65772;51.096;17.006;2023-05-29T11:14:56;6.50;;;2.10;;
76818;SDS011;65772;51.096;17.006;2023-05-29T11:17:42;6.00;;;2.30;;
76818;SDS011;65772;51.096;17.006;2023-05-29T11:20:20;6.70;;;2.20;;
76818;SDS011;65772;51.096;17.006;2023-05-29T11:23:04;6.70;;;2.50;;
76818;SDS011;65772;51.096;17.006;2023-05-29T11:25:36;6.80;;;2.20;;
76818;SDS011;65772;51.096;17.006;2023-05-29T11:28:08;3.90;;;2.00;;
76818;SDS011;65772;51.096;17.006;2023-05-29T11:30:43;6.30;;;2.30;;
76818;SDS011;65772;51.096;17.006;2023-05-29T11:33:22;6.40;;;2.30;;
76818;SDS011;65772;51.096;17.006;2023-05-29T11:35:55;6.70;;;2.40;;
76818;SDS011;65772;51.096;17.006;2023-05-29T11:38:28;11.30;;;2.30;;
76818;SDS011;65772;51.096;17.006;2023-05-29T11:41:00;7.20;;;2.80;;
76818;SDS011;65772;51.096;17.006;2023-05-29T11:43:31;5.80;;;2.30;;
76818;SDS011;65772;51.096;17.006;2023-05-29T11:46:02;6.20;;;2.00;;
76818;SDS011;65772;51.096;17.006;2023-05-29T11:48:45;6.90;;;2.40;;
76818;SDS011;65772;51.096;17.006;2023-05-29T11:51:16;5.90;;;2.30;;
76818;SDS011;65772;51.096;17.006;2023-05-29T11:53:47;6.70;;;2.20;;
76818;SDS011;65772;51.096;17.006;2023-05-29T11:56:21;6.10;;;2.10;;
76818;SDS011;65772;51.096;17.006;2023-05-29T11:58:51;5.70;;;2.50;;
76818;SDS011;65772;51.096;17.006;2023-05-29T12:01:24;5.90;;;2.40;;
76818;SDS011;65772;51.096;17.006;2023-05-29T12:03:56;4.30;;;2.20;;
76818;SDS011;65772;51.096;17.006;2023-05-29T12:06:33;6.00;;;2.50;;
76818;SDS011;65772;51.096;17.006;2023-05-29T12:09:06;6.20;;;2.20;;
76818;SDS011;65772;51.096;17.006;2023-05-29T12:11:36;5.50;;;2.10;;
76818;SDS011;65772;51.096;17.006;2023-05-29T12:14:07;4.80;;;2.30;;
76818;SDS011;65772;51.096;17.006;2023-05-29T12:16:37;5.50;;;2.10;;
76818;SDS011;65772;51.096;17.006;2023-05-29T12:19:09;4.80;;;2.40;;
76818;SDS011;65772;51.096;17.006;2023-05-29T12:21:42;5.30;;;2.20;;
76818;SDS011;65772;51.096;17.006;2023-05-29T12:24:13;7.10;;;2.20;;
76818;SDS011;65772;51.096;17.006;2023-05-29T12:26:43;5.00;;;2.20;;
76818;SDS011;65772;51.096;17.006;2023-05-29T12:29:15;5.50;;;2.20;;
76818;SDS011;65772;51.096;17.006;2023-05-29T12:31:45;7.10;;;2.40;;
76818;SDS011;65772;51.096;17.006;2023-05-29T12:34:16;5.10;;;2.30;;
76818;SDS011;65772;51.096;17.006;2023-05-29T12:36:47;4.90;;;2.50;;
76818;SDS011;65772;51.096;17.006;2023-05-29T12:39:18;6.40;;;2.20;;
76818;SDS011;65772;51.096;17.006;2023-05-29T12:41:53;6.40;;;2.30;;
76818;SDS011;65772;51.096;17.006;2023-05-29T12:44:24;8.00;;;2.20;;
76818;SDS011;65772;51.096;17.006;2023-05-29T12:46:56;4.30;;;2.00;;
76818;SDS011;65772;51.096;17.006;2023-05-29T12:49:26;4.20;;;2.30;;
76818;SDS011;65772;51.096;17.006;2023-05-29T12:54:34;4.80;;;2.20;;
76818;SDS011;65772;51.096;17.006;2023-05-29T12:57:05;6.20;;;2.30;;
76818;SDS011;65772;51.096;17.006;2023-05-29T12:59:36;7.50;;;2.50;;
76818;SDS011;65772;51.096;17.006;2023-05-29T13:02:07;6.90;;;2.20;;
76818;SDS011;65772;51.096;17.006;2023-05-29T13:04:37;4.20;;;2.10;;
76818;SDS011;65772;51.096;17.006;2023-05-29T13:07:08;5.50;;;1.90;;
76818;SDS011;65772;51.096;17.006;2023-05-29T13:09:39;6.50;;;2.40;;
76818;SDS011;65772;51.096;17.006;2023-05-29T13:12:10;4.70;;;1.90;;
76818;SDS011;65772;51.096;17.006;2023-05-29T13:14:40;5.80;;;1.90;;
76818;SDS011;65772;51.096;17.006;2023-05-29T13:17:11;4.70;;;2.00;;
76818;SDS011;65772;51.096;17.006;2023-05-29T13:19:41;6.50;;;2.20;;
76818;SDS011;65772;51.096;17.006;2023-05-29T13:22:12;4.70;;;2.00;;
76818;SDS011;65772;51.096;17.006;2023-05-29T13:24:42;5.90;;;2.20;;
76818;SDS011;65772;51.096;17.006;2023-05-29T13:27:13;5.50;;;2.10;;
76818;SDS011;65772;51.096;17.006;2023-05-29T13:29:44;4.70;;;1.80;;
76818;SDS011;65772;51.096;17.006;2023-05-29T13:32:14;4.50;;;2.00;;
76818;SDS011;65772;51.096;17.006;2023-05-29T13:34:45;5.10;;;2.20;;
76818;SDS011;65772;51.096;17.006;2023-05-29T13:37:16;5.60;;;2.50;;
76818;SDS011;65772;51.096;17.006;2023-05-29T13:39:46;7.20;;;2.60;;
76818;SDS011;65772;51.096;17.006;2023-05-29T13:42:17;6.30;;;2.40;;
76818;SDS011;65772;51.096;17.006;2023-05-29T13:44:48;4.30;;;2.20;;
76818;SDS011;65772;51.096;17.006;2023-05-29T13:47:19;6.70;;;2.90;;
76818;SDS011;65772;51.096;17.006;2023-05-29T13:49:49;6.60;;;2.30;;
76818;SDS011;65772;51.096;17.006;2023-05-29T13:52:21;5.30;;;2.30;;
76818;SDS011;65772;51.096;17.006;2023-05-29T13:54:52;3.90;;;2.20;;
76818;SDS011;65772;51.096;17.006;2023-05-29T13:57:22;4.70;;;2.20;;
76818;SDS011;65772;51.096;17.006;2023-05-29T13:59:53;5.10;;;2.60;;
76818;SDS011;65772;51.096;17.006;2023-05-29T14:02:23;5.20;;;2.30;;
76818;SDS011;65772;51.096;17.006;2023-05-29T14:04:54;4.00;;;2.10;;
76818;SDS011;65772;51.096;17.006;2023-05-29T14:07:25;4.70;;;1.90;;
76818;SDS011;65772;51.096;17.006;2023-05-29T14:09:55;5.40;;;2.30;;
76818;SDS011;65772;51.096;17.006;2023-05-29T14:12:26;5.80;;;3.60;;
76818;SDS011;65772;51.096;17.006;2023-05-29T14:14:57;5.80;;;2.90;;
76818;SDS011;65772;51.096;17.006;2023-05-29T14:17:27;4.40;;;2.10;;
76818;SDS011;65772;51.096;17.006;2023-05-29T14:19:58;6.90;;;1.90;;
76818;SDS011;65772;51.096;17.006;2023-05-29T14:22:32;5.60;;;2.60;;
76818;SDS011;65772;51.096;17.006;2023-05-29T14:25:05;4.80;;;2.60;;
76818;SDS011;65772;51.096;17.006;2023-05-29T14:27:36;4.40;;;2.50;;
76818;SDS011;65772;51.096;17.006;2023-05-29T14:30:07;5.50;;;2.30;;
76818;SDS011;65772;51.096;17.006;2023-05-29T14:32:38;6.00;;;2.20;;
76818;SDS011;65772;51.096;17.006;2023-05-29T14:35:11;5.20;;;2.40;;
76818;SDS011;65772;51.096;17.006;2023-05-29T14:37:41;5.80;;;2.20;;
76818;SDS011;65772;51.096;17.006;2023-05-29T14:40:12;6.00;;;3.10;;
76818;SDS011;65772;51.096;17.006;2023-05-29T14:42:43;6.80;;;3.50;;
76818;SDS011;65772;51.096;17.006;2023-05-29T14:45:16;6.80;;;2.90;;
76818;SDS011;65772;51.096;17.006;2023-05-29T14:47:47;8.40;;;2.80;;
76818;SDS011;65772;51.096;17.006;2023-05-29T14:50:17;6.70;;;3.20;;
76818;SDS011;65772;51.096;17.006;2023-05-29T14:52:48;7.80;;;3.00;;
76818;SDS011;65772;51.096;17.006;2023-05-29T14:55:19;5.90;;;2.60;;
76818;SDS011;65772;51.096;17.006;2023-05-29T14:57:49;6.60;;;2.20;;
76818;SDS011;65772;51.096;17.006;2023-05-29T15:00:20;5.60;;;2.40;;
76818;SDS011;65772;51.096;17.006;2023-05-29T15:02:51;4.90;;;2.50;;
76818;SDS011;65772;51.096;17.006;2023-05-29T15:05:24;5.30;;;2.50;;
76818;SDS011;65772;51.096;17.006;2023-05-29T15:07:56;6.10;;;2.70;;
76818;SDS011;65772;51.096;17.006;2023-05-29T15:10:27;5.00;;;2.40;;
76818;SDS011;65772;51.096;17.006;2023-05-29T15:12:58;8.20;;;2.70;;
76818;SDS011;65772;51.096;17.006;2023-05-29T15:15:31;5.40;;;2.50;;
76818;SDS011;65772;51.096;17.006;2023-05-29T15:18:15;5.40;;;2.20;;
76818;SDS011;65772;51.096;17.006;2023-05-29T15:20:45;7.20;;;2.50;;
76818;SDS011;65772;51.096;17.006;2023-05-29T15:23:16;4.00;;;2.20;;
76818;SDS011;65772;51.096;17.006;2023-05-29T15:25:49;9.30;;;2.70;;